Time;durP1;ratioP1;P1;durP2;ratioP2;P2;SDS_P1;SDS_P2;PMS_P1;PMS_P2;Temp;Humidity;BMP_temperature;BMP_pressure;BME280_temperature;BME280_humidity;BME280_pressure;Samples;Min_cycle;Max_cycle;Signal;HPM_P1;HPM_P2
2023/04/19 00:05:25;;;;;;;4.65;2.42;;;9.60;1.00;;;;;;20572282;28;20054;-41
2023/04/19 00:15:26;;;;;;;4.82;2.05;;;9.60;1.00;;;;;;20573864;28;21290;-42
2023/04/19 00:25:29;;;;;;;3.60;2.10;;;9.50;1.00;;;;;;20580676;28;20038;-42
2023/04/19 00:35:30;;;;;;;4.18;2.28;;;9.40;1.00;;;;;;20579845;28;20053;-42
2023/04/19 00:45:33;;;;;;;6.25;2.47;;;9.30;1.00;;;;;;20577955;28;20046;-42
2023/04/19 00:55:34;;;;;;;4.68;2.45;;;9.20;1.00;;;;;;20580148;28;20057;-42
2023/04/19 01:05:35;;;;;;;5.38;2.55;;;8.90;1.00;;;;;;20574783;28;20504;-42
2023/04/19 01:15:36;;;;;;;5.97;2.53;;;8.80;1.00;;;;;;20578026;28;20057;-42
2023/04/19 01:25:37;;;;;;;5.75;3.05;;;8.70;1.00;;;;;;20574283;28;20042;-42
2023/04/19 01:35:38;;;;;;;6.05;3.42;;;8.60;1.00;;;;;;20579886;28;20578;-42
2023/04/19 01:45:40;;;;;;;6.95;3.15;;;8.60;1.00;;;;;;20574893;28;20042;-42
2023/04/19 01:55:41;;;;;;;6.05;2.92;;;8.70;1.00;;;;;;20581108;28;20047;-42
2023/04/19 02:05:42;;;;;;;4.70;3.13;;;8.60;1.00;;;;;;20579594;28;20042;-41
2023/04/19 02:15:43;;;;;;;7.43;3.35;;;8.70;1.00;;;;;;20565926;28;20534;-42
2023/04/19 02:25:44;;;;;;;9.23;4.53;;;8.80;1.00;;;;;;20580226;28;20489;-41
2023/04/19 02:35:45;;;;;;;5.57;3.33;;;8.90;1.00;;;;;;20583372;28;20077;-42
2023/04/19 02:45:46;;;;;;;6.35;2.67;;;9.00;1.00;;;;;;20571157;28;20058;-42
2023/04/19 02:55:47;;;;;;;9.50;4.03;;;9.20;1.00;;;;;;20594407;28;20085;-41
2023/04/19 03:05:49;;;;;;;8.45;4.00;;;9.30;1.00;;;;;;20589818;28;20038;-42
2023/04/19 03:15:50;;;;;;;5.88;3.17;;;9.40;1.00;;;;;;20588011;28;20041;-42
2023/04/19 03:25:51;;;;;;;5.93;3.50;;;9.40;1.00;;;;;;20593036;28;20049;-42
2023/04/19 03:35:52;;;;;;;11.80;3.90;;;9.50;1.00;;;;;;20588542;28;20038;-42
2023/04/19 03:45:53;;;;;;;6.60;2.80;;;9.50;1.00;;;;;;20578604;28;20043;-41
2023/04/19 03:55:54;;;;;;;6.57;3.38;;;9.60;1.00;;;;;;20587527;28;20046;-42
2023/04/19 04:05:55;;;;;;;5.10;2.88;;;9.70;1.00;;;;;;20582635;28;20046;-42
2023/04/19 04:15:56;;;;;;;6.95;3.00;;;9.60;1.00;;;;;;20589536;28;20045;-41
2023/04/19 04:26:01;;;;;;;10.13;3.28;;;9.70;1.00;;;;;;20585953;28;20041;-42
2023/04/19 04:36:02;;;;;;;7.47;2.60;;;9.60;1.00;;;;;;20571921;28;20371;-42
2023/04/19 04:46:03;;;;;;;4.63;2.40;;;9.60;1.00;;;;;;20571279;28;20034;-42
2023/04/19 04:56:05;;;;;;;5.97;2.80;;;9.40;1.00;;;;;;20586961;28;20073;-42
2023/04/19 05:06:07;;;;;;;5.38;2.80;;;9.20;1.00;;;;;;20580737;28;20297;-42
2023/04/19 05:16:08;;;;;;;7.47;3.17;;;9.10;1.00;;;;;;20581213;28;20042;-42
2023/04/19 05:26:14;;;;;;;6.03;2.67;;;9.10;1.00;;;;;;20576228;28;20061;-42
2023/04/19 05:36:15;;;;;;;8.48;3.10;;;9.00;1.00;;;;;;20581318;28;20038;-42
2023/04/19 05:46:16;;;;;;;7.15;3.50;;;8.90;1.00;;;;;;20574660;28;20042;-42
2023/04/19 05:56:17;;;;;;;4.32;2.22;;;9.10;1.00;;;;;;20592643;28;20058;-43
2023/04/19 06:06:20;;;;;;;6.50;2.55;;;9.40;1.00;;;;;;20572677;28;20038;-42
2023/04/19 06:16:21;;;;;;;7.70;3.63;;;9.50;1.00;;;;;;20573615;28;20038;-42
2023/04/19 06:26:22;;;;;;;4.22;2.28;;;9.60;1.00;;;;;;20574169;28;20042;-42
2023/04/19 06:36:23;;;;;;;6.57;2.13;;;9.90;1.00;;;;;;20596918;28;20038;-42
2023/04/19 06:46:26;;;;;;;4.38;2.03;;;10.20;1.00;;;;;;20599433;28;20041;-42
2023/04/19 06:56:44;;;;;;;3.95;1.77;;;10.50;1.00;;;;;;20604228;28;20456;-42
2023/04/19 07:06:48;;;;;;;8.13;3.13;;;10.90;1.00;;;;;;20571427;28;20042;-42
2023/04/19 07:16:49;;;;;;;3.38;1.55;;;11.00;1.00;;;;;;20577442;28;20038;-42
2023/04/19 07:26:50;;;;;;;4.10;1.60;;;11.10;1.00;;;;;;20595029;28;20038;-42
2023/04/19 07:36:51;;;;;;;5.97;1.60;;;11.30;1.00;;;;;;20580854;28;20050;-42
2023/04/19 07:46:52;;;;;;;3.15;0.93;;;11.50;1.00;;;;;;20606718;28;20046;-42
2023/04/19 07:56:54;;;;;;;2.67;1.05;;;11.60;1.00;;;;;;20605679;28;20185;-42
2023/04/19 08:06:55;;;;;;;4.93;1.30;;;11.80;1.00;;;;;;20596719;28;20046;-41
2023/04/19 08:16:56;;;;;;;2.08;0.90;;;11.80;1.00;;;;;;20592718;28;20129;-41
2023/04/19 08:26:57;;;;;;;3.35;1.00;;;11.90;1.00;;;;;;20574376;28;20046;-42
2023/04/19 08:36:58;;;;;;;2.72;1.23;;;12.10;1.00;;;;;;20600129;28;20030;-42
2023/04/19 08:47:00;;;;;;;3.00;1.13;;;12.30;1.00;;;;;;20604669;28;20038;-42
2023/04/19 08:57:02;;;;;;;1.40;0.57;;;12.70;1.00;;;;;;20608912;28;20050;-42
2023/04/19 09:07:03;;;;;;;2.63;0.85;;;13.10;1.00;;;;;;20601773;28;20042;-42
2023/04/19 09:17:12;;;;;;;1.83;0.50;;;13.40;1.00;;;;;;20594393;28;20474;-42
2023/04/19 09:27:29;;;;;;;1.80;0.50;;;13.60;1.00;;;;;;20601468;28;21547;-42
2023/04/19 09:37:30;;;;;;;1.17;0.55;;;13.80;1.00;;;;;;20594124;28;20053;-41
2023/04/19 09:47:33;;;;;;;1.00;0.30;;;14.10;1.00;;;;;;20600038;28;20173;-41
2023/04/19 09:57:34;;;;;;;1.52;0.63;;;14.20;1.00;;;;;;20598002;28;20046;-41
2023/04/19 10:07:36;;;;;;;2.05;0.70;;;14.50;1.00;;;;;;20591394;28;20045;-41
2023/04/19 10:17:37;;;;;;;1.80;0.95;;;14.70;1.00;;;;;;20599016;28;20046;-41
2023/04/19 10:27:40;;;;;;;1.38;0.68;;;14.80;1.00;;;;;;20594210;28;20495;-41
2023/04/19 10:38:00;;;;;;;2.15;0.88;;;15.10;1.00;;;;;;20588591;28;20047;-41
2023/04/19 10:48:04;;;;;;;1.98;1.08;;;15.10;1.00;;;;;;20586761;28;20053;-40
2023/04/19 10:58:06;;;;;;;1.60;0.73;;;15.40;1.00;;;;;;20585104;28;20466;-41
2023/04/19 11:08:08;;;;;;;1.33;0.52;;;15.90;1.00;;;;;;20564164;28;20499;-42
2023/04/19 11:18:17;;;;;;;1.80;0.75;;;16.20;1.00;;;;;;20601655;28;20144;-41
2023/04/19 11:28:20;;;;;;;1.95;0.63;;;16.60;1.00;;;;;;20602213;28;20038;-41
2023/04/19 11:38:21;;;;;;;1.42;0.50;;;16.50;1.00;;;;;;20599690;28;20042;-41
2023/04/19 11:48:22;;;;;;;1.73;0.77;;;16.60;1.00;;;;;;20603942;28;20052;-40
2023/04/19 11:58:42;;;;;;;2.05;0.85;;;16.80;1.00;;;;;;20596228;28;20049;-41
2023/04/19 12:08:46;;;;;;;1.85;0.82;;;17.20;1.00;;;;;;20577552;28;20049;-41
2023/04/19 12:18:51;;;;;;;1.15;0.50;;;17.40;1.00;;;;;;20602341;28;20051;-40
2023/04/19 12:28:53;;;;;;;1.63;0.80;;;18.10;1.00;;;;;;20591196;28;20046;-41
2023/04/19 12:38:54;;;;;;;2.60;0.85;;;17.80;1.00;;;;;;20598190;28;20053;-41
2023/04/19 12:48:55;;;;;;;2.28;1.13;;;17.80;1.00;;;;;;20600730;28;20092;-41
2023/04/19 12:58:56;;;;;;;2.58;0.80;;;18.00;1.00;;;;;;20589693;28;20053;-41
2023/04/19 13:08:57;;;;;;;3.28;1.20;;;18.80;1.00;;;;;;20589275;28;20053;-39
2023/04/19 13:18:59;;;;;;;2.55;1.05;;;19.00;1.00;;;;;;20586534;28;20506;-39
2023/04/19 13:29:00;;;;;;;2.17;0.85;;;19.70;1.00;;;;;;20586889;28;20427;-39
2023/04/19 13:39:01;;;;;;;2.13;0.90;;;20.30;1.00;;;;;;20587926;28;20045;-39
2023/04/19 13:49:02;;;;;;;2.38;1.02;;;20.10;1.00;;;;;;20590152;28;20042;-41
2023/04/19 13:59:03;;;;;;;2.28;0.77;;;20.00;1.00;;;;;;20578912;28;20623;-39
2023/04/19 14:09:04;;;;;;;2.28;0.95;;;19.80;1.00;;;;;;20588111;28;20431;-38
2023/04/19 14:19:05;;;;;;;3.88;0.95;;;18.60;1.00;;;;;;20585762;28;20046;-40
2023/04/19 14:29:06;;;;;;;2.35;0.80;;;17.80;1.00;;;;;;20583195;28;20384;-40
2023/04/19 14:39:08;;;;;;;2.40;0.75;;;17.50;1.00;;;;;;20564994;28;20076;-41
2023/04/19 14:49:09;;;;;;;2.17;0.80;;;17.60;1.00;;;;;;20584362;28;20525;-41
2023/04/19 14:59:10;;;;;;;1.02;0.50;;;17.20;1.00;;;;;;20588376;28;20577;-40
2023/04/19 15:09:11;;;;;;;1.88;0.80;;;16.90;1.00;;;;;;20600029;28;20982;-40
2023/04/19 15:19:12;;;;;;;1.35;0.60;;;17.00;1.00;;;;;;20591472;28;20049;-41
2023/04/19 15:29:14;;;;;;;3.45;1.27;;;16.90;1.00;;;;;;20597455;28;20039;-41
2023/04/19 15:39:15;;;;;;;1.42;0.70;;;16.70;1.00;;;;;;20583740;28;20046;-41
2023/04/19 15:49:16;;;;;;;2.92;1.10;;;16.40;1.00;;;;;;20583114;28;20042;-41
2023/04/19 15:59:17;;;;;;;2.20;0.82;;;16.30;1.00;;;;;;20590839;28;20113;-40
2023/04/19 16:09:19;;;;;;;2.55;1.10;;;15.90;1.00;;;;;;20598272;28;20528;-41
2023/04/19 16:19:20;;;;;;;2.65;1.05;;;15.60;1.00;;;;;;20609957;28;20557;-40
2023/04/19 16:29:21;;;;;;;5.95;2.28;;;15.50;1.00;;;;;;20607809;28;20049;-41
2023/04/19 16:39:22;;;;;;;2.92;1.27;;;15.20;1.00;;;;;;20587954;28;20060;-41
2023/04/19 16:49:24;;;;;;;2.63;1.10;;;15.10;1.00;;;;;;20596076;28;20050;-41
2023/04/19 16:59:25;;;;;;;2.72;1.13;;;14.90;1.00;;;;;;20593838;28;20050;-40
2023/04/19 17:09:26;;;;;;;2.33;1.05;;;14.80;1.00;;;;;;20586566;28;20042;-41
2023/04/19 17:19:27;;;;;;;4.28;1.00;;;14.60;1.00;;;;;;20585643;28;20505;-41
2023/04/19 17:29:28;;;;;;;5.22;1.13;;;14.50;1.00;;;;;;20592229;28;20050;-41
2023/04/19 17:39:29;;;;;;;2.13;0.88;;;14.30;1.00;;;;;;20597972;28;20041;-41
2023/04/19 17:49:30;;;;;;;3.47;1.77;;;14.10;1.00;;;;;;20599166;28;20440;-41
2023/04/19 17:59:31;;;;;;;2.53;1.15;;;14.00;1.00;;;;;;20584541;28;20053;-41
2023/04/19 18:09:32;;;;;;;4.75;1.00;;;13.80;1.00;;;;;;20589960;28;20042;-41
2023/04/19 18:19:34;;;;;;;2.88;1.13;;;13.60;1.00;;;;;;20604764;28;20042;-41
2023/04/19 18:29:35;;;;;;;2.38;1.15;;;13.50;1.00;;;;;;20592856;28;20053;-41
2023/04/19 18:39:36;;;;;;;2.58;1.10;;;13.10;1.00;;;;;;20587730;28;20045;-41
2023/04/19 18:49:37;;;;;;;2.13;0.90;;;12.80;1.00;;;;;;20599447;28;20498;-41
2023/04/19 18:59:39;;;;;;;2.53;1.30;;;12.70;1.00;;;;;;20596795;28;20053;-41
2023/04/19 19:09:40;;;;;;;2.15;1.08;;;12.40;1.00;;;;;;20600357;28;20042;-41
2023/04/19 19:19:41;;;;;;;2.47;0.85;;;12.20;1.00;;;;;;20593252;28;20479;-41
2023/04/19 19:29:43;;;;;;;1.73;0.70;;;12.00;1.00;;;;;;20599829;28;20042;-41
2023/04/19 19:39:44;;;;;;;1.98;0.70;;;11.90;1.00;;;;;;20609983;28;20037;-41
2023/04/19 19:49:45;;;;;;;2.42;0.93;;;11.80;1.00;;;;;;20602528;28;20051;-41
2023/04/19 19:59:46;;;;;;;2.78;1.25;;;11.60;1.00;;;;;;20612456;28;20034;-41
2023/04/19 20:09:49;;;;;;;23.48;1.90;;;11.40;1.00;;;;;;20601476;28;20048;-41
2023/04/19 20:19:51;;;;;;;2.97;0.68;;;11.30;1.00;;;;;;20617123;28;20050;-41
2023/04/19 20:29:52;;;;;;;4.10;0.98;;;11.20;1.00;;;;;;20607272;28;20588;-41
2023/04/19 20:39:56;;;;;;;6.65;1.00;;;11.00;1.00;;;;;;20610416;28;20830;-41
2023/04/19 20:49:57;;;;;;;2.05;1.35;;;10.90;1.00;;;;;;20599945;28;20049;-41
2023/04/19 20:59:59;;;;;;;2.67;0.93;;;10.70;1.00;;;;;;20615728;28;20035;-41
2023/04/19 21:10:00;;;;;;;1.88;1.02;;;10.50;1.00;;;;;;20591875;28;20047;-41
2023/04/19 21:20:01;;;;;;;7.07;1.10;;;10.30;1.00;;;;;;20583728;28;20042;-41
2023/04/19 21:30:06;;;;;;;2.45;1.13;;;10.10;1.00;;;;;;20602576;28;20454;-41
2023/04/19 21:40:07;;;;;;;2.80;1.20;;;9.90;1.00;;;;;;20609550;28;20030;-41
2023/04/19 21:50:09;;;;;;;7.30;1.05;;;9.80;1.00;;;;;;20594912;28;20058;-41
2023/04/19 22:00:10;;;;;;;2.70;1.00;;;9.70;1.00;;;;;;20593306;28;20042;-41
2023/04/19 22:10:12;;;;;;;2.40;0.95;;;9.70;1.00;;;;;;20574576;28;20125;-41
2023/04/19 22:20:14;;;;;;;1.85;1.02;;;9.70;1.00;;;;;;20569095;28;20038;-41
2023/04/19 22:30:15;;;;;;;2.00;0.80;;;9.50;1.00;;;;;;20560991;28;20038;-41
2023/04/19 22:40:16;;;;;;;1.15;0.60;;;9.30;1.00;;;;;;20566005;28;20045;-41
2023/04/19 22:50:17;;;;;;;1.05;0.57;;;9.20;1.00;;;;;;20586224;28;20927;-41
2023/04/19 23:00:18;;;;;;;1.90;0.73;;;9.00;1.00;;;;;;20590260;28;20039;-41
2023/04/19 23:10:20;;;;;;;4.57;1.00;;;8.90;1.00;;;;;;20599122;28;20038;-41
2023/04/19 23:20:21;;;;;;;1.27;0.80;;;8.90;1.00;;;;;;20603928;28;20033;-41
2023/04/19 23:30:22;;;;;;;3.10;1.10;;;8.70;1.00;;;;;;20609392;28;20598;-41
2023/04/19 23:40:23;;;;;;;3.42;1.10;;;8.80;1.00;;;;;;20599207;28;20042;-41
2023/04/19 23:50:24;;;;;;;2.55;0.88;;;8.80;1.00;;;;;;20589924;28;20531;-41
